Time;durP1;ratioP1;P1;durP2;ratioP2;P2;SDS_P1;SDS_P2;PMS_P1;PMS_P2;Temp;Humidity;BMP_temperature;BMP_pressure;BME280_temperature;BME280_humidity;BME280_pressure;Samples;Min_cycle;Max_cycle;Signal;HPM_P1;HPM_P2
2022/03/30 00:00:23;;;;;;;;;;;17.70;49.50;;;;;;5064838;28;43451;-73
2022/03/30 00:02:49;;;;;;;;;;;17.70;49.60;;;;;;5064914;28;43084;-73
2022/03/30 00:05:15;;;;;;;;;;;17.80;48.60;;;;;;5065208;28;43341;-73
2022/03/30 00:07:40;;;;;;;;;;;17.80;49.00;;;;;;5065611;28;43026;-73
2022/03/30 00:10:07;;;;;;;;;;;17.70;49.50;;;;;;5064272;28;43530;-73
2022/03/30 00:12:34;;;;;;;;;;;17.70;49.00;;;;;;5063742;28;43087;-72
2022/03/30 00:14:59;;;;;;;;;;;17.80;49.40;;;;;;5064414;28;43218;-73
2022/03/30 00:17:25;;;;;;;;;;;17.90;48.90;;;;;;5064858;28;42989;-72
2022/03/30 00:19:50;;;;;;;;;;;17.20;48.50;;;;;;5064586;28;43876;-73
2022/03/30 00:22:16;;;;;;;;;;;17.60;48.80;;;;;;5065081;28;43284;-73
2022/03/30 00:24:45;;;;;;;;;;;17.90;49.00;;;;;;5078170;28;43877;-73
2022/03/30 00:27:11;;;;;;;;;;;17.70;48.50;;;;;;5084309;27;42980;-72
2022/03/30 00:29:37;;;;;;;;;;;17.80;49.60;;;;;;5084985;27;42952;-73
2022/03/30 00:32:03;;;;;;;;;;;17.60;49.50;;;;;;5084953;27;42973;-72
2022/03/30 00:34:28;;;;;;;;;;;17.90;49.00;;;;;;5085011;27;42845;-72
2022/03/30 00:36:54;;;;;;;;;;;17.80;50.10;;;;;;5085358;28;42803;-72
2022/03/30 00:39:19;;;;;;;;;;;17.80;49.20;;;;;;5085341;27;43447;-72
2022/03/30 00:41:45;;;;;;;;;;;17.70;49.60;;;;;;5084565;28;42996;-73
2022/03/30 00:44:14;;;;;;;;;;;17.70;49.70;;;;;;5084818;28;43037;-74
2022/03/30 00:46:42;;;;;;;;;;;17.80;49.60;;;;;;5084815;27;42897;-73
2022/03/30 00:49:07;;;;;;;;;;;17.80;49.00;;;;;;5084545;27;42851;-73
2022/03/30 00:51:33;;;;;;;;;;;18.00;49.60;;;;;;5084488;27;42837;-73
2022/03/30 00:53:59;;;;;;;;;;;17.80;49.60;;;;;;5084847;28;42816;-73
2022/03/30 00:56:27;;;;;;;;;;;17.80;48.90;;;;;;5084413;27;42931;-73
2022/03/30 00:58:52;;;;;;;;;;;17.80;49.60;;;;;;5084655;27;42999;-72
2022/03/30 01:01:19;;;;;;;;;;;17.80;49.10;;;;;;5084939;28;43070;-73
2022/03/30 01:03:44;;;;;;;;;;;17.80;49.10;;;;;;5083973;27;42843;-73
2022/03/30 01:06:10;;;;;;;;;;;17.80;49.20;;;;;;5084585;28;43006;-73
2022/03/30 01:08:35;;;;;;;;;;;17.80;49.20;;;;;;5084116;28;42999;-74
2022/03/30 01:11:01;;;;;;;;;;;17.80;49.60;;;;;;5084715;28;42868;-73
2022/03/30 01:13:26;;;;;;;;;;;17.70;49.60;;;;;;5083204;28;44632;-74
2022/03/30 01:15:52;;;;;;;;;;;17.80;49.20;;;;;;5083965;28;43070;-73
2022/03/30 01:18:17;;;;;;;;;;;17.50;49.10;;;;;;5083252;28;42974;-73
2022/03/30 01:20:49;;;;;;;;;;;17.70;49.80;;;;;;5084130;27;43032;-75
2022/03/30 01:23:15;;;;;;;;;;;17.60;48.80;;;;;;5083896;28;42952;-74
2022/03/30 01:25:41;;;;;;;;;;;17.80;49.40;;;;;;5084474;28;42947;-75
2022/03/30 01:28:06;;;;;;;;;;;18.00;49.40;;;;;;5084058;28;43570;-73
2022/03/30 01:33:16;;;;;;;;;;;17.80;49.40;;;;;;5083739;28;42853;-72
2022/03/30 01:35:42;;;;;;;;;;;17.70;49.80;;;;;;5083688;28;42964;-73
2022/03/30 01:38:07;;;;;;;;;;;17.80;49.30;;;;;;5083112;28;43586;-71
2022/03/30 01:40:33;;;;;;;;;;;17.70;49.80;;;;;;5083502;27;43011;-74
2022/03/30 01:42:59;;;;;;;;;;;17.60;49.30;;;;;;5087195;27;43359;-74
2022/03/30 01:45:24;;;;;;;;;;;17.70;49.20;;;;;;5087782;27;42799;-73
2022/03/30 01:47:54;;;;;;;;;;;17.80;49.20;;;;;;5087724;27;43228;-74
2022/03/30 01:50:20;;;;;;;;;;;17.70;48.20;;;;;;5087356;27;43182;-73
2022/03/30 01:52:46;;;;;;;;;;;17.80;49.50;;;;;;5087882;28;43540;-73
2022/03/30 01:55:11;;;;;;;;;;;17.80;49.10;;;;;;5085702;28;43003;-73
2022/03/30 01:57:37;;;;;;;;;;;17.70;49.10;;;;;;5087289;27;43518;-73
2022/03/30 02:00:04;;;;;;;;;;;18.10;49.10;;;;;;5087192;28;43065;-74
2022/03/30 02:02:30;;;;;;;;;;;17.80;48.90;;;;;;5087298;27;43038;-74
2022/03/30 02:04:55;;;;;;;;;;;17.80;49.50;;;;;;5087212;27;42956;-74
2022/03/30 02:07:21;;;;;;;;;;;17.80;49.10;;;;;;5086732;28;43916;-74
2022/03/30 02:09:48;;;;;;;;;;;17.70;49.60;;;;;;5086901;28;43035;-74
2022/03/30 02:12:13;;;;;;;;;;;17.70;49.20;;;;;;5087110;27;42980;-72
2022/03/30 02:14:41;;;;;;;;;;;17.60;49.70;;;;;;5087048;28;42865;-72
2022/03/30 02:17:06;;;;;;;;;;;17.80;49.10;;;;;;5075144;27;42930;-72
2022/03/30 02:19:32;;;;;;;;;;;17.80;49.10;;;;;;5064891;28;42952;-73
2022/03/30 02:21:58;;;;;;;;;;;17.70;49.60;;;;;;5066752;28;43875;-73
2022/03/30 02:24:24;;;;;;;;;;;17.90;49.20;;;;;;5064015;28;42760;-72
2022/03/30 02:26:50;;;;;;;;;;;17.90;49.60;;;;;;5065578;28;43472;-73
2022/03/30 02:29:16;;;;;;;;;;;17.80;49.80;;;;;;5065556;28;42985;-72
2022/03/30 02:31:42;;;;;;;;;;;17.70;49.70;;;;;;5063680;28;42950;-73
2022/03/30 02:34:09;;;;;;;;;;;17.80;49.10;;;;;;5066354;28;43457;-74
2022/03/30 02:36:35;;;;;;;;;;;17.80;49.60;;;;;;5065692;28;43043;-73
2022/03/30 02:39:00;;;;;;;;;;;17.80;49.50;;;;;;5065321;28;42978;-72
2022/03/30 02:41:26;;;;;;;;;;;;;;;;;;5065905;28;43307;-73
2022/03/30 02:43:52;;;;;;;;;;;17.70;49.00;;;;;;5066413;28;42923;-73
2022/03/30 02:46:18;;;;;;;;;;;17.80;49.50;;;;;;5062879;28;42919;-73
2022/03/30 02:48:43;;;;;;;;;;;17.70;49.50;;;;;;5065474;28;43173;-73
2022/03/30 02:51:09;;;;;;;;;;;17.70;48.80;;;;;;5065780;28;43519;-73
2022/03/30 02:53:35;;;;;;;;;;;17.60;49.20;;;;;;5064620;28;42966;-73
2022/03/30 02:56:01;;;;;;;;;;;17.80;49.10;;;;;;5065341;28;42937;-73
2022/03/30 02:58:27;;;;;;;;;;;;;;;;;;5066530;28;43147;-72
2022/03/30 03:00:54;;;;;;;;;;;17.80;48.20;;;;;;5064105;28;42996;-73
2022/03/30 03:03:20;;;;;;;;;;;17.70;49.70;;;;;;5064343;28;43172;-73
2022/03/30 03:05:45;;;;;;;;;;;18.00;49.20;;;;;;5064916;28;43335;-73
2022/03/30 03:08:12;;;;;;;;;;;17.80;49.20;;;;;;5065698;28;43068;-73
2022/03/30 03:10:38;;;;;;;;;;;17.80;49.20;;;;;;5065047;28;43807;-73
2022/03/30 03:13:05;;;;;;;;;;;17.80;49.80;;;;;;5065410;28;42842;-73
2022/03/30 03:15:31;;;;;;;;;;;17.70;49.60;;;;;;5068916;28;43487;-73
2022/03/30 03:17:57;;;;;;;;;;;17.60;49.70;;;;;;5066525;27;42809;-73
2022/03/30 03:20:23;;;;;;;;;;;17.80;49.30;;;;;;5064685;28;42851;-75
2022/03/30 03:22:49;;;;;;;;;;;17.60;49.60;;;;;;5065126;28;42839;-73
2022/03/30 03:25:14;;;;;;;;;;;17.80;49.10;;;;;;5065226;28;42878;-72
2022/03/30 03:27:40;;;;;;;;;;;17.70;48.80;;;;;;5065548;28;42946;-72
2022/03/30 03:30:06;;;;;;;;;;;17.70;49.30;;;;;;5063942;28;43645;-72
2022/03/30 03:32:32;;;;;;;;;;;17.90;48.90;;;;;;5083651;28;42930;-73
2022/03/30 03:34:57;;;;;;;;;;;17.70;49.40;;;;;;5084829;28;42781;-72
2022/03/30 03:37:23;;;;;;;;;;;17.80;49.20;;;;;;5084959;28;42913;-72
2022/03/30 03:39:48;;;;;;;;;;;17.80;49.40;;;;;;5084736;27;43855;-72
2022/03/30 03:42:13;;;;;;;;;;;17.80;49.00;;;;;;5085177;28;42898;-72
2022/03/30 03:44:39;;;;;;;;;;;17.00;49.00;;;;;;5085167;28;43443;-75
2022/03/30 03:47:07;;;;;;;;;;;17.80;48.90;;;;;;5085765;28;42858;-75
2022/03/30 03:49:33;;;;;;;;;;;17.70;49.20;;;;;;5084098;28;43013;-75
2022/03/30 03:51:58;;;;;;;;;;;17.60;49.00;;;;;;5084148;28;43015;-74
2022/03/30 03:54:24;;;;;;;;;;;17.70;49.50;;;;;;5082812;28;42999;-75
2022/03/30 03:56:49;;;;;;;;;;;17.70;48.90;;;;;;5083333;28;43187;-76
2022/03/30 03:59:15;;;;;;;;;;;17.80;48.90;;;;;;5083602;28;42973;-75
2022/03/30 04:01:40;;;;;;;;;;;17.80;49.50;;;;;;5084298;28;43155;-74
2022/03/30 04:04:06;;;;;;;;;;;17.70;49.40;;;;;;5084184;28;43737;-74
2022/03/30 04:06:32;;;;;;;;;;;17.70;48.90;;;;;;5084489;28;42891;-74
2022/03/30 04:08:58;;;;;;;;;;;17.70;49.40;;;;;;5083961;28;43513;-74
2022/03/30 04:11:23;;;;;;;;;;;17.90;49.00;;;;;;5083007;28;42993;-75
2022/03/30 04:13:49;;;;;;;;;;;17.50;48.90;;;;;;5082952;28;42975;-73
2022/03/30 04:16:16;;;;;;;;;;;17.70;49.40;;;;;;5080800;27;43510;-74
2022/03/30 04:18:42;;;;;;;;;;;17.80;48.80;;;;;;5081332;27;43067;-74
2022/03/30 04:21:07;;;;;;;;;;;17.70;49.20;;;;;;5084276;27;42952;-74
2022/03/30 04:23:33;;;;;;;;;;;17.80;48.80;;;;;;5083961;28;43083;-73
2022/03/30 04:25:58;;;;;;;;;;;17.70;48.80;;;;;;5080738;28;44526;-73
2022/03/30 04:28:24;;;;;;;;;;;17.70;49.40;;;;;;5078944;28;43367;-73
2022/03/30 04:30:49;;;;;;;;;;;17.70;49.80;;;;;;5082294;28;43209;-73
2022/03/30 04:33:15;;;;;;;;;;;17.70;49.60;;;;;;5082034;28;44046;-73
2022/03/30 04:35:40;;;;;;;;;;;17.80;49.50;;;;;;5083017;28;43167;-72
2022/03/30 04:38:06;;;;;;;;;;;17.70;49.80;;;;;;5075044;28;42981;-73
2022/03/30 04:40:31;;;;;;;;;;;17.80;49.90;;;;;;5081342;28;43471;-72
2022/03/30 04:42:57;;;;;;;;;;;17.40;50.20;;;;;;5082463;27;43019;-73
2022/03/30 04:45:23;;;;;;;;;;;17.40;50.80;;;;;;5083542;28;42993;-72
2022/03/30 04:47:49;;;;;;;;;;;17.30;50.60;;;;;;5083608;28;43000;-72
2022/03/30 04:50:15;;;;;;;;;;;17.20;50.60;;;;;;5083180;27;42945;-72
2022/03/30 04:52:41;;;;;;;;;;;17.10;50.90;;;;;;5082237;28;43796;-72
2022/03/30 04:55:08;;;;;;;;;;;17.70;51.80;;;;;;5083042;28;43067;-75
2022/03/30 04:57:33;;;;;;;;;;;17.10;50.70;;;;;;5083408;28;43793;-72
2022/03/30 04:59:59;;;;;;;;;;;17.20;51.40;;;;;;5083104;28;42964;-72
2022/03/30 05:02:26;;;;;;;;;;;17.30;51.00;;;;;;5073318;27;43529;-75
2022/03/30 05:04:52;;;;;;;;;;;17.20;51.00;;;;;;5080367;28;43696;-73
2022/03/30 05:07:18;;;;;;;;;;;17.10;51.40;;;;;;5082534;28;42799;-72
2022/03/30 05:09:44;;;;;;;;;;;17.40;51.70;;;;;;5083008;28;43092;-72
2022/03/30 05:12:09;;;;;;;;;;;17.10;51.60;;;;;;5083871;28;42988;-72
2022/03/30 05:14:35;;;;;;;;;;;17.30;51.40;;;;;;5083196;28;42809;-72
2022/03/30 05:17:01;;;;;;;;;;;17.10;51.90;;;;;;5084261;27;44043;-73
2022/03/30 05:19:26;;;;;;;;;;;17.00;51.50;;;;;;5087244;28;43001;-73
2022/03/30 05:21:52;;;;;;;;;;;17.00;51.70;;;;;;5086867;28;42964;-73
2022/03/30 05:24:17;;;;;;;;;;;17.20;51.70;;;;;;5087107;28;43071;-72
2022/03/30 05:26:43;;;;;;;;;;;17.10;51.80;;;;;;5085508;27;42898;-73
2022/03/30 05:29:09;;;;;;;;;;;17.10;51.60;;;;;;5085939;27;43095;-73
2022/03/30 05:31:34;;;;;;;;;;;17.00;51.50;;;;;;5086755;28;43623;-73
2022/03/30 05:34:00;;;;;;;;;;;17.00;52.20;;;;;;5087023;28;43061;-73
2022/03/30 05:36:25;;;;;;;;;;;17.00;51.80;;;;;;5088257;28;42847;-73
2022/03/30 05:38:51;;;;;;;;;;;16.80;51.80;;;;;;5086562;28;42965;-73
2022/03/30 05:41:17;;;;;;;;;;;17.00;52.00;;;;;;5087548;28;43040;-73
2022/03/30 05:43:43;;;;;;;;;;;17.00;51.70;;;;;;5086332;28;42929;-73
2022/03/30 05:46:08;;;;;;;;;;;17.10;51.50;;;;;;5085377;28;44265;-76
2022/03/30 05:48:34;;;;;;;;;;;17.00;51.70;;;;;;5087709;28;42922;-73
2022/03/30 05:50:59;;;;;;;;;;;17.00;51.50;;;;;;5087645;28;43508;-75
2022/03/30 05:53:25;;;;;;;;;;;16.90;51.60;;;;;;5088118;28;42795;-73
2022/03/30 05:55:50;;;;;;;;;;;17.00;51.80;;;;;;5087384;28;43485;-74
2022/03/30 05:58:16;;;;;;;;;;;16.90;51.20;;;;;;5087229;28;42909;-76
2022/03/30 06:00:42;;;;;;;;;;;17.00;51.60;;;;;;5087243;28;42939;-73
2022/03/30 06:03:10;;;;;;;;;;;17.00;51.00;;;;;;5087070;28;42921;-73
2022/03/30 06:05:35;;;;;;;;;;;16.90;51.60;;;;;;5086772;28;42843;-73
2022/03/30 06:08:01;;;;;;;;;;;16.90;52.00;;;;;;5073628;27;42949;-74
2022/03/30 06:10:27;;;;;;;;;;;16.90;52.00;;;;;;5080363;28;44716;-73
2022/03/30 06:12:54;;;;;;;;;;;16.90;52.00;;;;;;5076429;28;43359;-73
2022/03/30 06:15:19;;;;;;;;;;;16.70;51.80;;;;;;5077806;28;43099;-72
2022/03/30 06:17:46;;;;;;;;;;;16.80;51.80;;;;;;5073141;28;42938;-73
2022/03/30 06:20:13;;;;;;;;;;;17.00;51.70;;;;;;5075820;28;43694;-74
2022/03/30 06:22:41;;;;;;;;;;;17.00;51.70;;;;;;5087343;27;43007;-73
2022/03/30 06:25:07;;;;;;;;;;;17.20;51.60;;;;;;5069514;27;43465;-73
2022/03/30 06:27:33;;;;;;;;;;;17.00;51.60;;;;;;5064846;28;42843;-73
2022/03/30 06:29:58;;;;;;;;;;;17.30;50.10;;;;;;5063990;28;43052;-73
2022/03/30 06:32:24;;;;;;;;;;;17.60;49.90;;;;;;5068320;28;43065;-74
2022/03/30 06:34:49;;;;;;;;;;;17.40;49.70;;;;;;5074481;28;44072;-72
2022/03/30 06:37:15;;;;;;;;;;;17.80;49.90;;;;;;5066152;28;42856;-75
2022/03/30 06:39:40;;;;;;;;;;;17.60;49.40;;;;;;5065812;28;42981;-74
2022/03/30 06:42:06;;;;;;;;;;;17.60;49.20;;;;;;5066388;28;42887;-74
2022/03/30 06:44:32;;;;;;;;;;;17.60;49.20;;;;;;5064544;28;43847;-75
2022/03/30 06:46:58;;;;;;;;;;;17.70;49.70;;;;;;5065601;28;43026;-77
2022/03/30 06:49:23;;;;;;;;;;;17.80;49.50;;;;;;5064414;28;43041;-76
2022/03/30 06:51:49;;;;;;;;;;;17.70;48.70;;;;;;5066240;28;43171;-77
2022/03/30 06:54:15;;;;;;;;;;;17.70;48.60;;;;;;5066288;28;42873;-76
2022/03/30 06:56:41;;;;;;;;;;;17.90;48.50;;;;;;5065272;28;43002;-76
2022/03/30 06:59:06;;;;;;;;;;;17.80;48.50;;;;;;5064971;28;42966;-75
2022/03/30 07:01:32;;;;;;;;;;;17.90;49.00;;;;;;5065467;28;43132;-76
2022/03/30 07:03:57;;;;;;;;;;;17.80;48.90;;;;;;5064592;28;43103;-75
2022/03/30 07:06:23;;;;;;;;;;;17.90;49.00;;;;;;5062881;28;43015;-78
2022/03/30 07:11:33;;;;;;;;;;;17.80;48.00;;;;;;5064110;28;43269;-77
2022/03/30 07:13:58;;;;;;;;;;;18.00;48.80;;;;;;5063867;28;43104;-75
2022/03/30 07:16:24;;;;;;;;;;;18.10;47.90;;;;;;5065555;28;42883;-74
2022/03/30 07:18:50;;;;;;;;;;;18.00;47.90;;;;;;5065105;28;44018;-74
2022/03/30 07:21:16;;;;;;;;;;;18.00;47.90;;;;;;5064769;28;43092;-77
2022/03/30 07:23:41;;;;;;;;;;;18.00;47.80;;;;;;5065567;28;43988;-78
2022/03/30 07:26:07;;;;;;;;;;;17.70;48.40;;;;;;5063683;28;42934;-79
2022/03/30 07:28:35;;;;;;;;;;;18.00;47.90;;;;;;5063586;28;43354;-78
2022/03/30 07:31:01;;;;;;;;;;;18.00;48.30;;;;;;5064441;28;42997;-76
2022/03/30 07:33:26;;;;;;;;;;;18.00;47.40;;;;;;5063824;28;44148;-77
2022/03/30 07:35:52;;;;;;;;;;;18.10;47.50;;;;;;5064979;28;43174;-78
2022/03/30 07:38:19;;;;;;;;;;;18.00;47.40;;;;;;5072692;27;43672;-75
2022/03/30 07:40:45;;;;;;;;;;;18.20;47.20;;;;;;5078393;28;42987;-78
2022/03/30 07:43:12;;;;;;;;;;;18.10;47.30;;;;;;5084042;28;44227;-76
2022/03/30 07:45:38;;;;;;;;;;;18.20;47.50;;;;;;5085625;28;42953;-77
2022/03/30 07:48:04;;;;;;;;;;;18.30;47.40;;;;;;5085726;28;42914;-76
2022/03/30 07:50:30;;;;;;;;;;;18.20;47.50;;;;;;5085192;28;43181;-76
2022/03/30 07:52:55;;;;;;;;;;;18.10;47.90;;;;;;5085591;28;43376;-76
2022/03/30 07:55:21;;;;;;;;;;;18.30;47.70;;;;;;5085720;28;42972;-76
2022/03/30 07:57:46;;;;;;;;;;;18.30;48.10;;;;;;5086150;28;42878;-77
2022/03/30 08:00:15;;;;;;;;;;;18.20;48.00;;;;;;5085854;28;42708;-77
2022/03/30 08:02:41;;;;;;;;;;;18.10;48.00;;;;;;5085521;28;43708;-76
2022/03/30 08:05:10;;;;;;;;;;;18.20;48.10;;;;;;5085651;28;42929;-74
2022/03/30 08:07:35;;;;;;;;;;;18.20;48.00;;;;;;5085618;28;43545;-74
2022/03/30 08:10:01;;;;;;;;;;;18.20;48.20;;;;;;5085886;28;42976;-77
2022/03/30 08:12:27;;;;;;;;;;;18.20;48.10;;;;;;5085613;28;43662;-77
2022/03/30 08:14:54;;;;;;;;;;;18.30;48.10;;;;;;5085419;28;42748;-77
2022/03/30 08:17:19;;;;;;;;;;;18.30;47.50;;;;;;5084860;28;43592;-76
2022/03/30 08:19:45;;;;;;;;;;;18.20;48.00;;;;;;5085229;28;42977;-76
2022/03/30 08:22:25;;;;;;;;;;;18.30;47.40;;;;;;5084865;28;42918;-76
2022/03/30 08:25:00;;;;;;;;;;;18.30;47.40;;;;;;5085021;28;42850;-75
2022/03/30 08:27:27;;;;;;;;;;;18.30;47.30;;;;;;5083444;28;43491;-77
2022/03/30 08:29:53;;;;;;;;;;;18.40;47.20;;;;;;5085245;28;43643;-76
2022/03/30 08:32:20;;;;;;;;;;;18.30;47.10;;;;;;5084719;28;43014;-77
2022/03/30 08:34:47;;;;;;;;;;;18.40;47.30;;;;;;5082801;28;43019;-77
2022/03/30 08:37:13;;;;;;;;;;;18.40;47.70;;;;;;5084252;27;43264;-77
2022/03/30 08:39:39;;;;;;;;;;;18.30;47.30;;;;;;5083654;27;43150;-77
2022/03/30 08:42:05;;;;;;;;;;;18.30;47.70;;;;;;5084559;27;42966;-76
2022/03/30 08:44:32;;;;;;;;;;;18.40;47.90;;;;;;5082538;28;42953;-77
2022/03/30 08:46:58;;;;;;;;;;;18.40;47.20;;;;;;5084225;27;44088;-77
2022/03/30 08:49:24;;;;;;;;;;;18.50;47.10;;;;;;5085135;27;42853;-76
2022/03/30 08:51:50;;;;;;;;;;;18.30;47.50;;;;;;5084817;28;44100;-77
2022/03/30 08:54:16;;;;;;;;;;;18.30;47.50;;;;;;5088714;27;42953;-75
2022/03/30 08:56:42;;;;;;;;;;;18.30;46.90;;;;;;5088567;27;43355;-77
2022/03/30 08:59:08;;;;;;;;;;;18.40;47.00;;;;;;5088536;28;42933;-77
2022/03/30 09:01:35;;;;;;;;;;;18.60;46.90;;;;;;5088082;28;43970;-76
2022/03/30 09:04:01;;;;;;;;;;;18.40;46.90;;;;;;5088185;27;42944;-76
2022/03/30 09:06:28;;;;;;;;;;;18.40;46.70;;;;;;5086139;28;44229;-76
2022/03/30 09:08:56;;;;;;;;;;;18.60;47.40;;;;;;5088233;27;42945;-78
2022/03/30 09:11:24;;;;;;;;;;;18.40;46.80;;;;;;5087504;27;43109;-77
2022/03/30 09:14:03;;;;;;;;;;;18.60;46.80;;;;;;5086085;27;44164;-74
2022/03/30 09:16:42;;;;;;;;;;;18.50;46.50;;;;;;5067171;27;44886;-77
2022/03/30 09:19:09;;;;;;;;;;;18.40;46.40;;;;;;5073165;28;43282;-77
2022/03/30 09:21:43;;;;;;;;;;;18.50;47.30;;;;;;5081684;28;43652;-78
2022/03/30 09:24:09;;;;;;;;;;;18.50;46.50;;;;;;5078242;28;43052;-77
2022/03/30 09:26:35;;;;;;;;;;;18.70;47.30;;;;;;5081547;27;44372;-77
2022/03/30 09:29:01;;;;;;;;;;;18.50;47.90;;;;;;5084306;27;42989;-78
2022/03/30 09:31:27;;;;;;;;;;;18.40;47.50;;;;;;5078499;28;42936;-78
2022/03/30 09:33:55;;;;;;;;;;;18.40;47.60;;;;;;5082472;27;43120;-77
2022/03/30 09:36:31;;;;;;;;;;;18.50;48.40;;;;;;5080803;28;45638;-77
2022/03/30 09:38:56;;;;;;;;;;;18.40;47.60;;;;;;5077095;28;43040;-77
2022/03/30 09:41:22;;;;;;;;;;;18.60;48.30;;;;;;5077804;27;42929;-76
2022/03/30 09:43:47;;;;;;;;;;;18.60;47.60;;;;;;5077863;28;43002;-76
2022/03/30 09:46:14;;;;;;;;;;;18.50;48.10;;;;;;5077356;28;44135;-76
2022/03/30 09:48:49;;;;;;;;;;;18.70;47.20;;;;;;5075529;28;42963;-79
2022/03/30 09:51:15;;;;;;;;;;;18.50;46.90;;;;;;5080118;28;43580;-75
2022/03/30 09:53:42;;;;;;;;;;;18.70;48.30;;;;;;5079067;28;42986;-75
2022/03/30 09:56:08;;;;;;;;;;;18.70;48.20;;;;;;5074458;27;43459;-73
2022/03/30 09:58:35;;;;;;;;;;;18.60;47.20;;;;;;5076215;28;42886;-75
2022/03/30 10:01:11;;;;;;;;;;;18.60;47.70;;;;;;5075625;28;43650;-73
2022/03/30 10:03:38;;;;;;;;;;;18.60;47.70;;;;;;5076473;28;43323;-73
2022/03/30 10:06:04;;;;;;;;;;;18.60;47.10;;;;;;5076466;28;43176;-74
2022/03/30 10:08:30;;;;;;;;;;;18.70;47.80;;;;;;5074850;27;42952;-75
2022/03/30 10:10:56;;;;;;;;;;;18.70;48.30;;;;;;5073397;27;43662;-72
2022/03/30 10:13:22;;;;;;;;;;;18.60;48.90;;;;;;5075098;28;43032;-73
2022/03/30 10:15:48;;;;;;;;;;;18.60;49.00;;;;;;5074022;27;42885;-72
2022/03/30 10:18:15;;;;;;;;;;;18.80;50.30;;;;;;5073844;28;43056;-74
2022/03/30 10:20:41;;;;;;;;;;;18.60;50.50;;;;;;5075863;28;42932;-73
2022/03/30 10:23:08;;;;;;;;;;;18.70;50.10;;;;;;5073143;28;43063;-73
2022/03/30 10:25:53;;;;;;;;;;;18.80;49.90;;;;;;5070640;28;43310;-74
2022/03/30 10:28:18;;;;;;;;;;;18.70;49.60;;;;;;5082498;28;43057;-74
2022/03/30 10:30:44;;;;;;;;;;;18.80;49.50;;;;;;5075474;27;43078;-75
2022/03/30 10:33:11;;;;;;;;;;;18.80;49.60;;;;;;5073788;28;42979;-75
2022/03/30 10:35:41;;;;;;;;;;;18.70;49.50;;;;;;5076556;28;43104;-76
2022/03/30 10:38:07;;;;;;;;;;;18.70;49.50;;;;;;5075594;28;43282;-77
2022/03/30 10:40:33;;;;;;;;;;;18.70;49.20;;;;;;5074889;27;42967;-79
2022/03/30 10:43:00;;;;;;;;;;;18.70;49.50;;;;;;5080310;28;43085;-78
2022/03/30 10:45:28;;;;;;;;;;;18.70;48.80;;;;;;5076470;28;44712;-76
2022/03/30 10:48:06;;;;;;;;;;;18.70;48.30;;;;;;5073980;27;43277;-76
2022/03/30 10:50:36;;;;;;;;;;;18.80;48.40;;;;;;5075557;28;42944;-77
2022/03/30 10:53:01;;;;;;;;;;;18.70;49.90;;;;;;5069044;28;43155;-76
2022/03/30 10:55:29;;;;;;;;;;;18.90;50.50;;;;;;5078753;27;43516;-77
2022/03/30 10:58:01;;;;;;;;;;;18.70;50.30;;;;;;5077178;28;43084;-77
2022/03/30 11:00:29;;;;;;;;;;;18.80;50.80;;;;;;5084210;28;43123;-77
2022/03/30 11:03:10;;;;;;;;;;;18.70;50.60;;;;;;5078888;27;43143;-77
2022/03/30 11:05:37;;;;;;;;;;;19.00;51.20;;;;;;5081893;28;44104;-76
2022/03/30 11:08:04;;;;;;;;;;;18.80;51.40;;;;;;5082968;27;43033;-78
2022/03/30 11:10:45;;;;;;;;;;;18.80;51.90;;;;;;5084724;28;43569;-77
2022/03/30 11:13:11;;;;;;;;;;;18.70;51.80;;;;;;5085121;28;43004;-77
2022/03/30 11:15:56;;;;;;;;;;;19.00;51.30;;;;;;5084196;28;43169;-80
2022/03/30 11:18:21;;;;;;;;;;;18.90;50.70;;;;;;5085372;28;42921;-80
2022/03/30 11:21:05;;;;;;;;;;;19.10;51.90;;;;;;5083353;27;42980;-74
2022/03/30 11:23:31;;;;;;;;;;;18.90;50.70;;;;;;5082354;28;42982;-83
2022/03/30 11:25:56;;;;;;;;;;;18.80;50.50;;;;;;5085320;28;42903;-79
2022/03/30 11:28:40;;;;;;;;;;;19.00;50.40;;;;;;5083952;28;43014;-85
2022/03/30 11:31:22;;;;;;;;;;;18.90;50.30;;;;;;5085416;28;43676;-81
2022/03/30 11:34:06;;;;;;;;;;;18.90;50.50;;;;;;5084807;28;43743;-81
2022/03/30 11:36:31;;;;;;;;;;;18.90;50.40;;;;;;5084369;28;43791;-82
2022/03/30 11:38:59;;;;;;;;;;;19.10;50.20;;;;;;5085278;28;43345;-82
2022/03/30 11:41:25;;;;;;;;;;;19.20;50.80;;;;;;5084844;27;43148;-80
2022/03/30 11:46:38;;;;;;;;;;;18.90;49.70;;;;;;5085273;28;43161;-84
2022/03/30 11:49:04;;;;;;;;;;;18.90;49.70;;;;;;5085087;28;42968;-85
2022/03/30 11:51:30;;;;;;;;;;;19.10;50.10;;;;;;5084895;28;43730;-85
2022/03/30 11:54:19;;;;;;;;;;;18.80;49.90;;;;;;5085201;28;42810;-82
2022/03/30 11:56:45;;;;;;;;;;;18.90;49.80;;;;;;5084788;28;42902;-84
2022/03/30 11:59:10;;;;;;;;;;;18.80;49.50;;;;;;5083650;28;43064;-73
2022/03/30 12:01:37;;;;;;;;;;;19.00;49.70;;;;;;5084875;28;44549;-74
2022/03/30 12:04:03;;;;;;;;;;;19.00;49.70;;;;;;5085186;28;42949;-74
2022/03/30 12:06:28;;;;;;;;;;;18.90;50.10;;;;;;5084673;28;43010;-73
2022/03/30 12:08:54;;;;;;;;;;;19.20;49.70;;;;;;5085298;28;42969;-78
2022/03/30 12:11:20;;;;;;;;;;;18.90;50.20;;;;;;5084683;28;43427;-75
2022/03/30 12:13:53;;;;;;;;;;;19.00;50.50;;;;;;5084219;28;43045;-73
2022/03/30 12:16:19;;;;;;;;;;;19.10;48.90;;;;;;5084641;28;43456;-72
2022/03/30 12:18:46;;;;;;;;;;;19.00;49.90;;;;;;5084675;28;42927;-74
2022/03/30 12:21:17;;;;;;;;;;;19.00;49.90;;;;;;5084634;28;43146;-77
2022/03/30 12:24:04;;;;;;;;;;;18.90;48.90;;;;;;5084035;28;43208;-77
2022/03/30 12:26:33;;;;;;;;;;;19.20;49.40;;;;;;5083749;28;44447;-84
2022/03/30 12:29:08;;;;;;;;;;;19.00;50.00;;;;;;5083227;28;43057;-85
2022/03/30 12:31:35;;;;;;;;;;;19.10;49.50;;;;;;5083549;28;44004;-77
2022/03/30 12:34:30;;;;;;;;;;;19.10;49.40;;;;;;5084041;28;43076;-84
2022/03/30 12:36:58;;;;;;;;;;;19.30;49.70;;;;;;5083595;27;44251;-84
2022/03/30 12:39:25;;;;;;;;;;;19.40;49.60;;;;;;5081988;28;42915;-81
2022/03/30 12:42:10;;;;;;;;;;;19.10;49.20;;;;;;5077239;28;43448;-83
2022/03/30 12:44:44;;;;;;;;;;;19.20;49.60;;;;;;5073502;28;42946;-81
2022/03/30 12:47:33;;;;;;;;;;;19.20;49.30;;;;;;5073169;28;42953;-82
2022/03/30 12:50:09;;;;;;;;;;;18.90;49.00;;;;;;5073181;27;42988;-83
2022/03/30 12:52:48;;;;;;;;;;;19.50;49.00;;;;;;5055271;28;43726;-83
2022/03/30 12:55:19;;;;;;;;;;;19.10;48.70;;;;;;5049117;28;43211;-82
2022/03/30 12:58:22;;;;;;;;;;;19.20;48.80;;;;;;5047122;28;43183;-82
2022/03/30 13:01:20;;;;;;;;;;;18.50;48.10;;;;;;4998296;28;43311;-83
2022/03/30 13:03:46;;;;;;;;;;;19.10;48.50;;;;;;4939840;28;43913;-78
2022/03/30 13:06:22;;;;;;;;;;;19.30;48.60;;;;;;4963807;28;43203;-78
2022/03/30 13:09:20;;;;;;;;;;;19.10;48.30;;;;;;4936318;28;44373;-77
2022/03/30 13:12:21;;;;;;;;;;;19.00;48.30;;;;;;4915750;28;43136;-78
2022/03/30 13:15:21;;;;;;;;;;;19.20;48.10;;;;;;4894688;29;44250;-78
2022/03/30 13:17:56;;;;;;;;;;;19.20;48.30;;;;;;4896496;29;43989;-77
2022/03/30 13:20:21;;;;;;;;;;;19.20;48.30;;;;;;4893635;29;43420;-76
2022/03/30 13:23:02;;;;;;;;;;;19.20;48.30;;;;;;4887698;29;43075;-81
2022/03/30 13:25:29;;;;;;;;;;;19.10;48.20;;;;;;4904614;29;43589;-80
2022/03/30 13:27:55;;;;;;;;;;;19.20;48.80;;;;;;4904790;29;42915;-80
2022/03/30 13:30:21;;;;;;;;;;;19.10;49.40;;;;;;4904021;29;43457;-80
2022/03/30 13:32:47;;;;;;;;;;;19.10;49.40;;;;;;4905108;29;42938;-79
2022/03/30 13:35:13;;;;;;;;;;;19.10;48.80;;;;;;4941515;28;43699;-78
2022/03/30 13:37:38;;;;;;;;;;;19.10;49.40;;;;;;4954276;28;43002;-80
2022/03/30 13:40:05;;;;;;;;;;;19.10;48.80;;;;;;4966469;28;42792;-77
2022/03/30 13:42:34;;;;;;;;;;;19.30;48.80;;;;;;4969440;28;43046;-80
2022/03/30 13:45:00;;;;;;;;;;;19.20;48.70;;;;;;4965988;28;43526;-80
2022/03/30 13:47:26;;;;;;;;;;;19.20;48.70;;;;;;5006792;28;42836;-81
2022/03/30 13:49:52;;;;;;;;;;;19.10;48.50;;;;;;5044496;28;43344;-81
2022/03/30 13:52:18;;;;;;;;;;;19.20;48.40;;;;;;5062881;28;42983;-78
2022/03/30 13:54:44;;;;;;;;;;;19.10;49.30;;;;;;5068168;28;42883;-76
2022/03/30 13:57:09;;;;;;;;;;;19.10;48.70;;;;;;5070559;28;42902;-80
2022/03/30 13:59:35;;;;;;;;;;;19.30;48.70;;;;;;5072913;28;42840;-78
2022/03/30 14:02:01;;;;;;;;;;;19.30;48.70;;;;;;5069043;28;43125;-73
2022/03/30 14:04:27;;;;;;;;;;;19.20;49.10;;;;;;5065251;28;43692;-72
2022/03/30 14:06:52;;;;;;;;;;;19.30;48.50;;;;;;5066505;28;42854;-75
2022/03/30 14:09:18;;;;;;;;;;;19.30;48.40;;;;;;5070150;28;42967;-73
2022/03/30 14:11:43;;;;;;;;;;;19.20;48.10;;;;;;5073868;28;42944;-73
2022/03/30 14:14:09;;;;;;;;;;;19.30;48.20;;;;;;5078907;28;43975;-72
2022/03/30 14:16:35;;;;;;;;;;;19.20;48.30;;;;;;5083768;28;43238;-73
2022/03/30 14:19:00;;;;;;;;;;;19.30;48.90;;;;;;5081783;28;44731;-73
2022/03/30 14:21:26;;;;;;;;;;;19.20;48.60;;;;;;5080666;28;43266;-72
2022/03/30 14:23:51;;;;;;;;;;;19.20;48.40;;;;;;5074639;28;43559;-72
2022/03/30 14:26:17;;;;;;;;;;;19.30;49.00;;;;;;5076656;28;43106;-72
2022/03/30 14:28:43;;;;;;;;;;;19.20;49.40;;;;;;5082038;27;42896;-73